EGNS/IOM METAR and TAF weather

Enter ICAO airport designator
Station Type Date Time Source
EGNS METAR 2024/02/26 17:50 UTC NOAA

EGNS 261750Z 33002KT 9999 FEW030 06/02 Q1022 NOSIG


Station Type Date Time Source
EGNS Decoded METAR 2024/02/26 17:50 UTC NOAA

Isle Of Man / Ronaldsway Airport, United Kingdom (EGNS) 54-05N 004-38W 0M
Feb 26, 2024 - 12:50 PM EST / 2024.02.26 1750 UTC
Wind: from the NNW (330 degrees) at 2 MPH (2 KT):0
Visibility: greater than 7 mile(s):0
Sky conditions: mostly clear
Temperature: 42 F (6 C)
Dew Point: 35 F (2 C)
Relative Humidity: 75%
Pressure (altimeter): 30.18 in. Hg (1022 hPa)
ob: EGNS 261750Z 33002KT 9999 FEW030 06/02 Q1022 NOSIG
cycle: 18

Station Type Date Time Source
EGNS TAF 2023/11/10 06:12 UTC NOAA